Rankings de siempre
Mejores tiempos personales válidos de equipo a través de todos los eventos y temporadas. Cada equipo aparece una vez por división.
Busca por nombre y abre la página donde está clasificado este récord de división.
137,494 equipos clasificados
| Pos. | Pos. AG | Equipo | Nacionalidad | Categoría de edad | TiempoMejor tiempo | Diferencia |
|---|---|---|---|---|---|---|
| 132451 | #41904 | Eva Yatien Hung & Pui sin ChengW 30-34 · AG #41904 | -- | W 30-34 | 1:59:03 | +65:42 |
| 132452 | -- | Aoife Keogh & Claire LeoIRL · W WU29 | IRL | W WU29 | 1:59:03 | +65:42 |
| 132453 | #41905 | Louise Coates & Esmae CoatesGBR · W 30-34 · AG #41905 | GBR | W 30-34 | 1:59:03 | +65:42 |
| 132454 | #14453 | Karolina Silva & Camila CorrêaBRA · W 35-39 · AG #14453 | BRA | W 35-39 | 1:59:03 | +65:42 |
| 132455 | #41903 | Oranit Sankaew & Pimpichcha PaibulaTHA · W 30-34 · AG #41903 | THA | W 30-34 | 1:59:03 | +65:42 |
| 132456 | #41906 | SALINTHIP NEAMMANEE & PANATSAYA BURANAPHONTHA · W 30-34 · AG #41906 | THA | W 30-34 | 1:59:03 | +65:42 |
| 132457 | #18839 | Anukampa Kannan & Jyothi RajeshIND · W 40-44 · AG #18839 | IND | W 40-44 | 1:59:03 | +65:42 |
| 132458 | #41907 | Saira Higareda & Mitzu GalvanMEX · W 30-34 · AG #41907 | MEX | W 30-34 | 1:59:04 | +65:43 |
| 132459 | #41908 | Elizabeth Lacoume & Katelyn BursonUSA · W 30-34 · AG #41908 | USA | W 30-34 | 1:59:04 | +65:43 |
| 132460 | #3069 | Leena Bhalerao & Savita KaushikIND · W 50-54 · AG #3069 | IND | W 50-54 | 1:59:04 | +65:43 |
| 132461 | -- | Pernille Mattheijer & Sharona HofmanNED · W WU29 | NED | W WU29 | 1:59:04 | +65:43 |
| 132462 | #3070 | Helen Prothero & Cathy BrownGBR · W 50-54 · AG #3070 | GBR | W 50-54 | 1:59:04 | +65:43 |
| 132463 | #68 | Kauroff Annett & Sänger ANNETTEGER · W 50-59 · AG #68 | GER | W 50-59 | 1:59:04 | +65:43 |
| 132464 | #41909 | Sara Lee & Lyndsey YarwoodGBR · W 30-34 · AG #41909 | GBR | W 30-34 | 1:59:04 | +65:43 |
| 132465 | #19652 | Rebecca Watson & Jordan HamiltonGBR · W 25-29 · AG #19652 | GBR | W 25-29 | 1:59:04 | +65:43 |
| 132466 | #19653 | Allie Hartman & Peyton TraudtUSA · W 25-29 · AG #19653 | USA | W 25-29 | 1:59:04 | +65:43 |
| 132467 | #10881 | Anneke Mariet Van Gelder & Gabrielle Van GelderNED · W 16-24 · AG #10881 | NED | W 16-24 | 1:59:04 | +65:43 |
| 132468 | #41910 | Hannah Katreena Liao & Grace MadrilejosW 30-34 · AG #41910 | -- | W 30-34 | 1:59:05 | +65:44 |
| 132469 | #497 | Loryn Cohen & Jennifer FaberUSA · W 55-59 · AG #497 | USA | W 55-59 | 1:59:05 | +65:44 |
| 132470 | #41911 | Sandra Henderson & Lindsey McfarlaneGBR · W 30-34 · AG #41911 | GBR | W 30-34 | 1:59:05 | +65:44 |
| 132471 | #41912 | Eileen Andrew & Kaley SmithUSA · W 30-34 · AG #41912 | USA | W 30-34 | 1:59:05 | +65:44 |
| 132472 | #19654 | Elisabeth Feord & Sarah DekhtikyanW 25-29 · AG #19654 | -- | W 25-29 | 1:59:06 | +65:45 |
| 132473 | #14454 | Coleen Stephenson & Brooke MeadowsUSA · W 35-39 · AG #14454 | USA | W 35-39 | 1:59:06 | +65:45 |
| 132474 | #10882 | Jorieke Leeuw & Merle BouwmanNED · W 16-24 · AG #10882 | NED | W 16-24 | 1:59:06 | +65:45 |
| 132475 | #1282 | Yvonne Tenner & Stefanie Urchs & Stefanie UrchsGER · W 30-39 · AG #1282 | GER | W 30-39 | 1:59:06 | +65:45 |
Página 5,299 de 5,500